sensor_id;sensor_type;location;lat;lon;timestamp;temperature;humidity
48666;DHT22;34452;50.796;4.994;2022-11-14T00:00:37;4.60;99.90
48666;DHT22;34452;50.796;4.994;2022-11-14T00:03:04;4.50;99.90
48666;DHT22;34452;50.796;4.994;2022-11-14T00:05:30;4.50;99.90
48666;DHT22;34452;50.796;4.994;2022-11-14T00:07:56;4.40;99.90
48666;DHT22;34452;50.796;4.994;2022-11-14T00:10:22;4.30;99.90
48666;DHT22;34452;50.796;4.994;2022-11-14T00:12:48;4.30;99.90
48666;DHT22;34452;50.796;4.994;2022-11-14T00:15:14;4.40;99.90
48666;DHT22;34452;50.796;4.994;2022-11-14T00:17:40;4.50;99.90
48666;DHT22;34452;50.796;4.994;2022-11-14T00:20:07;4.50;99.90
48666;DHT22;34452;50.796;4.994;2022-11-14T00:22:34;4.50;99.90
48666;DHT22;34452;50.796;4.994;2022-11-14T00:24:59;4.50;99.90
48666;DHT22;34452;50.796;4.994;2022-11-14T00:27:25;4.40;99.90
48666;DHT22;34452;50.796;4.994;2022-11-14T00:29:51;4.40;99.90
48666;DHT22;34452;50.796;4.994;2022-11-14T00:32:17;4.40;99.90
48666;DHT22;34452;50.796;4.994;2022-11-14T00:34:43;4.30;99.90
48666;DHT22;34452;50.796;4.994;2022-11-14T00:37:09;4.30;99.90
48666;DHT22;34452;50.796;4.994;2022-11-14T00:39:34;4.20;99.90
48666;DHT22;34452;50.796;4.994;2022-11-14T00:42:00;4.20;99.90
48666;DHT22;34452;50.796;4.994;2022-11-14T00:44:26;4.20;99.90
48666;DHT22;34452;50.796;4.994;2022-11-14T00:46:51;4.20;99.90
48666;DHT22;34452;50.796;4.994;2022-11-14T00:49:17;4.20;99.90
48666;DHT22;34452;50.796;4.994;2022-11-14T00:51:43;4.20;99.90
48666;DHT22;34452;50.796;4.994;2022-11-14T00:54:09;4.20;99.90
48666;DHT22;34452;50.796;4.994;2022-11-14T00:56:34;4.20;99.90
48666;DHT22;34452;50.796;4.994;2022-11-14T00:59:00;4.10;99.90
48666;DHT22;34452;50.796;4.994;2022-11-14T01:01:26;4.10;99.90
48666;DHT22;34452;50.796;4.994;2022-11-14T01:03:52;4.10;99.90
48666;DHT22;34452;50.796;4.994;2022-11-14T01:06:18;4.00;99.90
48666;DHT22;34452;50.796;4.994;2022-11-14T01:08:44;4.00;99.90
48666;DHT22;34452;50.796;4.994;2022-11-14T01:11:14;4.00;99.90
48666;DHT22;34452;50.796;4.994;2022-11-14T01:13:40;4.00;99.90
48666;DHT22;34452;50.796;4.994;2022-11-14T01:16:06;4.00;99.90
48666;DHT22;34452;50.796;4.994;2022-11-14T01:18:32;3.90;99.90
48666;DHT22;34452;50.796;4.994;2022-11-14T01:20:58;3.90;99.90
48666;DHT22;34452;50.796;4.994;2022-11-14T01:23:24;3.90;99.90
48666;DHT22;34452;50.796;4.994;2022-11-14T01:25:50;3.90;99.90
48666;DHT22;34452;50.796;4.994;2022-11-14T01:28:17;3.90;99.90
48666;DHT22;34452;50.796;4.994;2022-11-14T01:30:44;3.90;99.90
48666;DHT22;34452;50.796;4.994;2022-11-14T01:33:10;3.90;99.90
48666;DHT22;34452;50.796;4.994;2022-11-14T01:35:37;3.90;99.90
48666;DHT22;34452;50.796;4.994;2022-11-14T01:38:04;3.80;99.90
48666;DHT22;34452;50.796;4.994;2022-11-14T01:40:31;3.90;99.90
48666;DHT22;34452;50.796;4.994;2022-11-14T01:43:47;4.00;99.90
48666;DHT22;34452;50.796;4.994;2022-11-14T01:46:29;4.00;99.90
48666;DHT22;34452;50.796;4.994;2022-11-14T01:54:38;4.10;99.90
48666;DHT22;34452;50.796;4.994;2022-11-14T01:57:06;4.10;99.90
48666;DHT22;34452;50.796;4.994;2022-11-14T01:59:38;4.20;99.90
48666;DHT22;34452;50.796;4.994;2022-11-14T02:02:28;4.20;99.90
48666;DHT22;34452;50.796;4.994;2022-11-14T02:05:10;4.30;99.90
48666;DHT22;34452;50.796;4.994;2022-11-14T02:07:39;4.30;99.90
48666;DHT22;34452;50.796;4.994;2022-11-14T02:10:09;4.20;99.90
48666;DHT22;34452;50.796;4.994;2022-11-14T02:12:36;4.20;99.90
48666;DHT22;34452;50.796;4.994;2022-11-14T02:15:03;4.20;99.90
48666;DHT22;34452;50.796;4.994;2022-11-14T02:17:29;4.10;99.90
48666;DHT22;34452;50.796;4.994;2022-11-14T02:22:37;3.90;99.90
48666;DHT22;34452;50.796;4.994;2022-11-14T02:25:06;3.80;99.90
48666;DHT22;34452;50.796;4.994;2022-11-14T02:27:32;3.70;99.90
48666;DHT22;34452;50.796;4.994;2022-11-14T02:30:06;3.70;99.90
48666;DHT22;34452;50.796;4.994;2022-11-14T02:32:32;3.70;99.90
48666;DHT22;34452;50.796;4.994;2022-11-14T02:34:58;3.70;99.90
48666;DHT22;34452;50.796;4.994;2022-11-14T02:37:23;3.70;99.90
48666;DHT22;34452;50.796;4.994;2022-11-14T02:39:49;3.60;99.90
48666;DHT22;34452;50.796;4.994;2022-11-14T02:42:15;3.50;99.90
48666;DHT22;34452;50.796;4.994;2022-11-14T02:44:40;3.40;99.90
48666;DHT22;34452;50.796;4.994;2022-11-14T02:47:06;3.40;99.90
48666;DHT22;34452;50.796;4.994;2022-11-14T02:49:32;3.50;99.90
48666;DHT22;34452;50.796;4.994;2022-11-14T02:51:58;3.50;99.90
48666;DHT22;34452;50.796;4.994;2022-11-14T02:54:23;3.50;99.90
48666;DHT22;34452;50.796;4.994;2022-11-14T02:56:49;3.60;99.90
48666;DHT22;34452;50.796;4.994;2022-11-14T02:59:15;3.70;99.90
48666;DHT22;34452;50.796;4.994;2022-11-14T03:01:41;3.70;99.90
48666;DHT22;34452;50.796;4.994;2022-11-14T03:04:06;3.80;99.90
48666;DHT22;34452;50.796;4.994;2022-11-14T03:06:32;3.90;99.90
48666;DHT22;34452;50.796;4.994;2022-11-14T03:08:58;3.80;99.90
48666;DHT22;34452;50.796;4.994;2022-11-14T03:11:24;3.70;99.90
48666;DHT22;34452;50.796;4.994;2022-11-14T03:13:50;3.60;99.90
48666;DHT22;34452;50.796;4.994;2022-11-14T03:16:15;3.50;99.90
48666;DHT22;34452;50.796;4.994;2022-11-14T03:18:41;3.50;99.90
48666;DHT22;34452;50.796;4.994;2022-11-14T03:21:09;3.50;99.90
48666;DHT22;34452;50.796;4.994;2022-11-14T03:23:35;3.60;99.90
48666;DHT22;34452;50.796;4.994;2022-11-14T03:26:02;3.70;99.90
48666;DHT22;34452;50.796;4.994;2022-11-14T03:28:28;3.70;99.90
48666;DHT22;34452;50.796;4.994;2022-11-14T03:30:54;3.90;99.90
48666;DHT22;34452;50.796;4.994;2022-11-14T03:33:20;3.80;99.90
48666;DHT22;34452;50.796;4.994;2022-11-14T03:35:48;3.70;99.90
48666;DHT22;34452;50.796;4.994;2022-11-14T03:38:15;3.60;99.90
48666;DHT22;34452;50.796;4.994;2022-11-14T03:40:41;3.60;99.90
48666;DHT22;34452;50.796;4.994;2022-11-14T03:43:07;3.50;99.90
48666;DHT22;34452;50.796;4.994;2022-11-14T03:45:33;3.60;99.90
48666;DHT22;34452;50.796;4.994;2022-11-14T03:48:00;3.70;99.90
48666;DHT22;34452;50.796;4.994;2022-11-14T03:50:26;3.70;99.90
48666;DHT22;34452;50.796;4.994;2022-11-14T03:52:51;3.70;99.90
48666;DHT22;34452;50.796;4.994;2022-11-14T03:55:17;3.70;99.90
48666;DHT22;34452;50.796;4.994;2022-11-14T03:57:43;3.70;99.90
48666;DHT22;34452;50.796;4.994;2022-11-14T04:00:09;3.70;99.90
48666;DHT22;34452;50.796;4.994;2022-11-14T04:02:35;3.60;99.90
48666;DHT22;34452;50.796;4.994;2022-11-14T04:05:00;3.60;99.90
48666;DHT22;34452;50.796;4.994;2022-11-14T04:07:26;3.50;99.90
48666;DHT22;34452;50.796;4.994;2022-11-14T04:09:52;3.40;99.90
48666;DHT22;34452;50.796;4.994;2022-11-14T04:12:18;3.40;99.90
48666;DHT22;34452;50.796;4.994;2022-11-14T04:14:43;3.40;99.90
48666;DHT22;34452;50.796;4.994;2022-11-14T04:17:10;3.30;99.90
48666;DHT22;34452;50.796;4.994;2022-11-14T04:19:35;3.40;99.90
48666;DHT22;34452;50.796;4.994;2022-11-14T04:22:02;3.40;99.90
48666;DHT22;34452;50.796;4.994;2022-11-14T04:24:27;3.50;99.90
48666;DHT22;34452;50.796;4.994;2022-11-14T04:26:53;3.50;99.90
48666;DHT22;34452;50.796;4.994;2022-11-14T04:29:19;3.40;99.90
48666;DHT22;34452;50.796;4.994;2022-11-14T04:31:45;3.30;99.90
48666;DHT22;34452;50.796;4.994;2022-11-14T04:34:10;3.30;99.90
48666;DHT22;34452;50.796;4.994;2022-11-14T04:36:36;3.30;99.90
48666;DHT22;34452;50.796;4.994;2022-11-14T04:39:02;3.40;99.90
48666;DHT22;34452;50.796;4.994;2022-11-14T04:41:28;3.40;99.90
48666;DHT22;34452;50.796;4.994;2022-11-14T04:43:54;3.40;99.90
48666;DHT22;34452;50.796;4.994;2022-11-14T04:46:19;3.30;99.90
48666;DHT22;34452;50.796;4.994;2022-11-14T04:48:45;3.20;99.90
48666;DHT22;34452;50.796;4.994;2022-11-14T04:51:11;3.20;99.90
48666;DHT22;34452;50.796;4.994;2022-11-14T04:53:37;3.10;99.90
48666;DHT22;34452;50.796;4.994;2022-11-14T04:56:02;3.00;99.90
48666;DHT22;34452;50.796;4.994;2022-11-14T04:58:28;3.00;99.90
48666;DHT22;34452;50.796;4.994;2022-11-14T05:00:54;2.90;99.90
48666;DHT22;34452;50.796;4.994;2022-11-14T05:03:22;2.90;99.90
48666;DHT22;34452;50.796;4.994;2022-11-14T05:05:48;2.90;99.90
48666;DHT22;34452;50.796;4.994;2022-11-14T05:08:14;2.90;99.90
48666;DHT22;34452;50.796;4.994;2022-11-14T05:10:44;2.90;99.90
48666;DHT22;34452;50.796;4.994;2022-11-14T05:13:11;2.90;99.90
48666;DHT22;34452;50.796;4.994;2022-11-14T05:15:37;3.00;99.90
48666;DHT22;34452;50.796;4.994;2022-11-14T05:18:03;2.90;99.90
48666;DHT22;34452;50.796;4.994;2022-11-14T05:20:29;2.80;99.90
48666;DHT22;34452;50.796;4.994;2022-11-14T05:22:55;2.80;99.90
48666;DHT22;34452;50.796;4.994;2022-11-14T05:25:21;2.70;99.90
48666;DHT22;34452;50.796;4.994;2022-11-14T05:27:47;2.60;99.90
48666;DHT22;34452;50.796;4.994;2022-11-14T05:30:13;2.50;99.90
48666;DHT22;34452;50.796;4.994;2022-11-14T05:32:39;2.40;99.90
48666;DHT22;34452;50.796;4.994;2022-11-14T05:35:05;2.30;99.90
48666;DHT22;34452;50.796;4.994;2022-11-14T05:37:33;2.30;99.90
48666;DHT22;34452;50.796;4.994;2022-11-14T05:39:58;2.30;99.90
48666;DHT22;34452;50.796;4.994;2022-11-14T05:42:26;2.40;99.90
48666;DHT22;34452;50.796;4.994;2022-11-14T05:44:52;2.30;99.90
48666;DHT22;34452;50.796;4.994;2022-11-14T05:47:17;2.40;99.90
48666;DHT22;34452;50.796;4.994;2022-11-14T05:49:43;2.50;99.90
48666;DHT22;34452;50.796;4.994;2022-11-14T05:52:09;2.60;99.90
48666;DHT22;34452;50.796;4.994;2022-11-14T05:54:35;2.50;99.90
48666;DHT22;34452;50.796;4.994;2022-11-14T05:57:01;2.50;99.90
48666;DHT22;34452;50.796;4.994;2022-11-14T05:59:27;2.50;99.90
48666;DHT22;34452;50.796;4.994;2022-11-14T06:01:52;2.50;99.90
48666;DHT22;34452;50.796;4.994;2022-11-14T06:04:18;2.50;99.90
48666;DHT22;34452;50.796;4.994;2022-11-14T06:06:44;2.60;99.90
48666;DHT22;34452;50.796;4.994;2022-11-14T06:09:09;2.60;99.90
48666;DHT22;34452;50.796;4.994;2022-11-14T06:11:35;2.70;99.90
48666;DHT22;34452;50.796;4.994;2022-11-14T06:14:01;2.90;99.90
48666;DHT22;34452;50.796;4.994;2022-11-14T06:16:27;2.90;99.90
48666;DHT22;34452;50.796;4.994;2022-11-14T06:18:53;3.00;99.90
48666;DHT22;34452;50.796;4.994;2022-11-14T06:21:21;3.00;99.90
48666;DHT22;34452;50.796;4.994;2022-11-14T06:23:47;3.10;99.90
48666;DHT22;34452;50.796;4.994;2022-11-14T06:28:49;3.20;99.90
48666;DHT22;34452;50.796;4.994;2022-11-14T06:31:15;3.20;99.90
48666;DHT22;34452;50.796;4.994;2022-11-14T06:33:41;3.20;99.90
48666;DHT22;34452;50.796;4.994;2022-11-14T06:36:08;3.30;99.90
48666;DHT22;34452;50.796;4.994;2022-11-14T06:38:36;3.20;99.90
48666;DHT22;34452;50.796;4.994;2022-11-14T06:41:10;3.10;99.90
48666;DHT22;34452;50.796;4.994;2022-11-14T06:43:37;3.00;99.90
48666;DHT22;34452;50.796;4.994;2022-11-14T06:46:04;3.00;99.90
48666;DHT22;34452;50.796;4.994;2022-11-14T06:48:31;2.90;99.90
48666;DHT22;34452;50.796;4.994;2022-11-14T06:50:57;2.80;99.90
48666;DHT22;34452;50.796;4.994;2022-11-14T06:53:24;2.70;99.90
48666;DHT22;34452;50.796;4.994;2022-11-14T06:55:58;2.60;99.90
48666;DHT22;34452;50.796;4.994;2022-11-14T06:58:28;2.60;99.90
48666;DHT22;34452;50.796;4.994;2022-11-14T07:00:54;2.70;99.90
48666;DHT22;34452;50.796;4.994;2022-11-14T07:03:20;2.80;99.90
48666;DHT22;34452;50.796;4.994;2022-11-14T07:05:46;2.90;99.90
48666;DHT22;34452;50.796;4.994;2022-11-14T07:08:13;2.90;99.90
48666;DHT22;34452;50.796;4.994;2022-11-14T07:10:39;3.00;99.90
48666;DHT22;34452;50.796;4.994;2022-11-14T07:13:04;3.10;99.90
48666;DHT22;34452;50.796;4.994;2022-11-14T07:15:30;3.10;99.90
48666;DHT22;34452;50.796;4.994;2022-11-14T07:17:57;3.20;99.90
48666;DHT22;34452;50.796;4.994;2022-11-14T07:20:23;3.20;99.90
48666;DHT22;34452;50.796;4.994;2022-11-14T07:22:49;3.10;99.90
48666;DHT22;34452;50.796;4.994;2022-11-14T07:25:14;3.00;99.90
48666;DHT22;34452;50.796;4.994;2022-11-14T07:27:40;3.00;99.90
48666;DHT22;34452;50.796;4.994;2022-11-14T07:30:06;2.90;99.90
48666;DHT22;34452;50.796;4.994;2022-11-14T07:32:32;2.90;99.90
48666;DHT22;34452;50.796;4.994;2022-11-14T07:34:57;2.90;99.90
48666;DHT22;34452;50.796;4.994;2022-11-14T07:37:23;2.90;99.90
48666;DHT22;34452;50.796;4.994;2022-11-14T07:39:49;2.90;99.90
48666;DHT22;34452;50.796;4.994;2022-11-14T07:42:15;3.00;99.90
48666;DHT22;34452;50.796;4.994;2022-11-14T07:44:40;3.00;99.90
48666;DHT22;34452;50.796;4.994;2022-11-14T07:47:06;3.10;99.90
48666;DHT22;34452;50.796;4.994;2022-11-14T07:49:32;3.20;99.90
48666;DHT22;34452;50.796;4.994;2022-11-14T07:51:58;3.10;99.90
48666;DHT22;34452;50.796;4.994;2022-11-14T07:54:24;3.20;99.90
48666;DHT22;34452;50.796;4.994;2022-11-14T07:56:50;3.20;99.90
48666;DHT22;34452;50.796;4.994;2022-11-14T07:59:16;3.20;99.90
48666;DHT22;34452;50.796;4.994;2022-11-14T08:01:42;3.20;99.90
48666;DHT22;34452;50.796;4.994;2022-11-14T08:04:07;3.30;99.90
48666;DHT22;34452;50.796;4.994;2022-11-14T08:06:33;3.40;99.90
48666;DHT22;34452;50.796;4.994;2022-11-14T08:08:59;3.50;99.90
48666;DHT22;34452;50.796;4.994;2022-11-14T08:11:25;3.60;99.90
48666;DHT22;34452;50.796;4.994;2022-11-14T08:14:09;3.70;99.90
48666;DHT22;34452;50.796;4.994;2022-11-14T08:16:35;3.70;99.90
48666;DHT22;34452;50.796;4.994;2022-11-14T08:19:01;3.80;99.90
48666;DHT22;34452;50.796;4.994;2022-11-14T08:21:26;3.90;99.90
48666;DHT22;34452;50.796;4.994;2022-11-14T08:23:52;3.90;99.90
48666;DHT22;34452;50.796;4.994;2022-11-14T08:26:18;4.00;99.90
48666;DHT22;34452;50.796;4.994;2022-11-14T08:28:44;4.10;99.90
48666;DHT22;34452;50.796;4.994;2022-11-14T08:31:09;4.10;99.90
48666;DHT22;34452;50.796;4.994;2022-11-14T08:33:35;4.10;99.90
48666;DHT22;34452;50.796;4.994;2022-11-14T08:36:02;4.10;99.90
48666;DHT22;34452;50.796;4.994;2022-11-14T08:38:30;4.20;99.90
48666;DHT22;34452;50.796;4.994;2022-11-14T08:40:59;4.30;99.90
48666;DHT22;34452;50.796;4.994;2022-11-14T08:43:26;4.40;99.90
48666;DHT22;34452;50.796;4.994;2022-11-14T08:45:55;4.60;99.90
48666;DHT22;34452;50.796;4.994;2022-11-14T08:48:21;4.70;99.90
48666;DHT22;34452;50.796;4.994;2022-11-14T08:50:47;4.80;99.90
48666;DHT22;34452;50.796;4.994;2022-11-14T08:53:12;4.80;99.90
48666;DHT22;34452;50.796;4.994;2022-11-14T08:55:43;4.90;99.90
48666;DHT22;34452;50.796;4.994;2022-11-14T09:00:38;5.00;99.90
48666;DHT22;34452;50.796;4.994;2022-11-14T09:03:10;5.10;99.90
48666;DHT22;34452;50.796;4.994;2022-11-14T09:05:41;5.20;99.90
48666;DHT22;34452;50.796;4.994;2022-11-14T09:08:06;5.30;99.90
48666;DHT22;34452;50.796;4.994;2022-11-14T09:10:33;5.40;99.90
48666;DHT22;34452;50.796;4.994;2022-11-14T09:13:00;5.50;99.90
48666;DHT22;34452;50.796;4.994;2022-11-14T09:15:27;5.50;99.90
48666;DHT22;34452;50.796;4.994;2022-11-14T09:17:54;5.60;99.90
48666;DHT22;34452;50.796;4.994;2022-11-14T09:20:23;5.70;99.90
48666;DHT22;34452;50.796;4.994;2022-11-14T09:22:50;5.70;99.90
48666;DHT22;34452;50.796;4.994;2022-11-14T09:25:18;5.70;99.90
48666;DHT22;34452;50.796;4.994;2022-11-14T09:27:44;5.80;99.90
48666;DHT22;34452;50.796;4.994;2022-11-14T09:30:11;5.90;99.90
48666;DHT22;34452;50.796;4.994;2022-11-14T09:32:36;6.00;99.90
48666;DHT22;34452;50.796;4.994;2022-11-14T09:35:03;6.00;99.90
48666;DHT22;34452;50.796;4.994;2022-11-14T09:37:29;6.10;99.90
48666;DHT22;34452;50.796;4.994;2022-11-14T09:39:54;6.10;99.90
48666;DHT22;34452;50.796;4.994;2022-11-14T09:45:03;6.20;99.90
48666;DHT22;34452;50.796;4.994;2022-11-14T09:47:40;6.20;99.90
48666;DHT22;34452;50.796;4.994;2022-11-14T09:50:19;6.20;99.90
48666;DHT22;34452;50.796;4.994;2022-11-14T09:52:53;6.20;99.90
48666;DHT22;34452;50.796;4.994;2022-11-14T09:55:28;6.20;99.90
48666;DHT22;34452;50.796;4.994;2022-11-14T09:57:54;6.20;99.90
48666;DHT22;34452;50.796;4.994;2022-11-14T10:00:21;6.20;99.90
48666;DHT22;34452;50.796;4.994;2022-11-14T10:16:41;6.30;99.90
48666;DHT22;34452;50.796;4.994;2022-11-14T10:19:38;6.30;99.90
48666;DHT22;34452;50.796;4.994;2022-11-14T10:30:39;6.50;99.90
48666;DHT22;34452;50.796;4.994;2022-11-14T10:39:38;6.60;99.90
48666;DHT22;34452;50.796;4.994;2022-11-14T10:41:45;6.60;99.90
48666;DHT22;34452;50.796;4.994;2022-11-14T10:44:15;6.70;99.90
48666;DHT22;34452;50.796;4.994;2022-11-14T10:46:55;6.70;99.90
48666;DHT22;34452;50.796;4.994;2022-11-14T10:49:25;6.80;99.90
48666;DHT22;34452;50.796;4.994;2022-11-14T10:52:01;6.80;99.90
48666;DHT22;34452;50.796;4.994;2022-11-14T10:55:08;6.80;99.90
48666;DHT22;34452;50.796;4.994;2022-11-14T10:57:38;6.90;99.90
48666;DHT22;34452;50.796;4.994;2022-11-14T11:00:14;6.90;99.90
48666;DHT22;34452;50.796;4.994;2022-11-14T11:02:54;6.90;99.90
48666;DHT22;34452;50.796;4.994;2022-11-14T11:05:23;7.00;99.90
48666;DHT22;34452;50.796;4.994;2022-11-14T11:07:50;7.00;99.90
48666;DHT22;34452;50.796;4.994;2022-11-14T11:10:40;7.00;99.90
48666;DHT22;34452;50.796;4.994;2022-11-14T11:13:36;7.00;99.90
48666;DHT22;34452;50.796;4.994;2022-11-14T11:16:09;7.00;99.90
48666;DHT22;34452;50.796;4.994;2022-11-14T11:18:35;7.00;99.90
48666;DHT22;34452;50.796;4.994;2022-11-14T11:21:08;6.90;99.90
48666;DHT22;34452;50.796;4.994;2022-11-14T11:23:35;6.90;99.90
48666;DHT22;34452;50.796;4.994;2022-11-14T11:26:22;6.90;99.90
48666;DHT22;34452;50.796;4.994;2022-11-14T11:31:51;6.90;99.90
48666;DHT22;34452;50.796;4.994;2022-11-14T11:34:22;6.80;99.90
48666;DHT22;34452;50.796;4.994;2022-11-14T11:36:56;6.80;99.90
48666;DHT22;34452;50.796;4.994;2022-11-14T11:39:29;6.70;99.90
48666;DHT22;34452;50.796;4.994;2022-11-14T11:42:00;6.70;99.90
48666;DHT22;34452;50.796;4.994;2022-11-14T11:44:35;6.70;99.90
48666;DHT22;34452;50.796;4.994;2022-11-14T11:47:08;6.80;99.90
48666;DHT22;34452;50.796;4.994;2022-11-14T11:49:50;6.80;99.90
48666;DHT22;34452;50.796;4.994;2022-11-14T11:52:32;6.80;99.90
48666;DHT22;34452;50.796;4.994;2022-11-14T11:57:50;7.00;99.90
48666;DHT22;34452;50.796;4.994;2022-11-14T12:00:21;7.00;99.90
48666;DHT22;34452;50.796;4.994;2022-11-14T12:02:49;7.00;99.90
48666;DHT22;34452;50.796;4.994;2022-11-14T12:08:03;7.00;99.90
48666;DHT22;34452;50.796;4.994;2022-11-14T12:10:37;7.10;99.90
48666;DHT22;34452;50.796;4.994;2022-11-14T12:21:45;7.10;99.90
48666;DHT22;34452;50.796;4.994;2022-11-14T12:27:29;7.10;99.90
48666;DHT22;34452;50.796;4.994;2022-11-14T12:30:20;7.10;99.90
48666;DHT22;34452;50.796;4.994;2022-11-14T12:33:09;7.20;99.90
48666;DHT22;34452;50.796;4.994;2022-11-14T12:35:37;7.20;99.90
48666;DHT22;34452;50.796;4.994;2022-11-14T12:38:14;7.20;99.90
48666;DHT22;34452;50.796;4.994;2022-11-14T12:40:54;7.30;99.90
48666;DHT22;34452;50.796;4.994;2022-11-14T12:43:34;7.40;99.90
48666;DHT22;34452;50.796;4.994;2022-11-14T12:46:05;7.50;99.90
48666;DHT22;34452;50.796;4.994;2022-11-14T12:48:45;7.60;99.90
48666;DHT22;34452;50.796;4.994;2022-11-14T12:53:56;7.70;99.90
48666;DHT22;34452;50.796;4.994;2022-11-14T12:59:32;7.70;99.90
48666;DHT22;34452;50.796;4.994;2022-11-14T13:10:12;7.80;99.90
48666;DHT22;34452;50.796;4.994;2022-11-14T13:12:41;7.70;99.90
48666;DHT22;34452;50.796;4.994;2022-11-14T13:18:24;7.80;99.90
48666;DHT22;34452;50.796;4.994;2022-11-14T13:21:19;7.90;99.90
48666;DHT22;34452;50.796;4.994;2022-11-14T13:24:04;7.90;99.90
48666;DHT22;34452;50.796;4.994;2022-11-14T13:28:55;8.00;99.90
48666;DHT22;34452;50.796;4.994;2022-11-14T13:31:44;7.90;99.90
48666;DHT22;34452;50.796;4.994;2022-11-14T13:35:12;7.80;99.90
48666;DHT22;34452;50.796;4.994;2022-11-14T13:40:17;7.60;99.90
48666;DHT22;34452;50.796;4.994;2022-11-14T13:50:40;7.50;99.90
48666;DHT22;34452;50.796;4.994;2022-11-14T13:53:16;7.40;99.90
48666;DHT22;34452;50.796;4.994;2022-11-14T14:04:22;7.60;99.90
48666;DHT22;34452;50.796;4.994;2022-11-14T14:07:02;7.60;99.90
48666;DHT22;34452;50.796;4.994;2022-11-14T14:12:09;7.60;99.90
48666;DHT22;34452;50.796;4.994;2022-11-14T14:28:45;7.40;99.90
48666;DHT22;34452;50.796;4.994;2022-11-14T14:31:17;7.30;99.90
48666;DHT22;34452;50.796;4.994;2022-11-14T14:33:50;7.30;99.90
48666;DHT22;34452;50.796;4.994;2022-11-14T14:38:44;7.40;99.90
48666;DHT22;34452;50.796;4.994;2022-11-14T14:41:11;7.50;99.90
48666;DHT22;34452;50.796;4.994;2022-11-14T14:43:41;7.40;99.90
48666;DHT22;34452;50.796;4.994;2022-11-14T14:46:07;7.40;99.90
48666;DHT22;34452;50.796;4.994;2022-11-14T14:48:37;7.40;99.90
48666;DHT22;34452;50.796;4.994;2022-11-14T14:51:03;7.30;99.90
48666;DHT22;34452;50.796;4.994;2022-11-14T14:53:33;7.30;99.90
48666;DHT22;34452;50.796;4.994;2022-11-14T14:56:01;7.30;99.90
48666;DHT22;34452;50.796;4.994;2022-11-14T14:58:30;7.30;99.90
48666;DHT22;34452;50.796;4.994;2022-11-14T15:01:08;7.30;99.90
48666;DHT22;34452;50.796;4.994;2022-11-14T15:03:38;7.40;99.90
48666;DHT22;34452;50.796;4.994;2022-11-14T15:06:17;7.40;99.90
48666;DHT22;34452;50.796;4.994;2022-11-14T15:08:45;7.40;99.90
48666;DHT22;34452;50.796;4.994;2022-11-14T15:11:12;7.40;99.90
48666;DHT22;34452;50.796;4.994;2022-11-14T15:13:38;7.40;99.90
48666;DHT22;34452;50.796;4.994;2022-11-14T15:16:05;7.40;99.90
48666;DHT22;34452;50.796;4.994;2022-11-14T15:18:32;7.40;99.90
48666;DHT22;34452;50.796;4.994;2022-11-14T15:26:25;7.40;99.90
48666;DHT22;34452;50.796;4.994;2022-11-14T15:28:51;7.40;99.90
48666;DHT22;34452;50.796;4.994;2022-11-14T15:31:19;7.40;99.90
48666;DHT22;34452;50.796;4.994;2022-11-14T15:34:03;7.40;99.90
48666;DHT22;34452;50.796;4.994;2022-11-14T15:36:29;7.50;99.90
48666;DHT22;34452;50.796;4.994;2022-11-14T15:38:59;7.50;99.90
48666;DHT22;34452;50.796;4.994;2022-11-14T15:41:26;7.50;99.90
48666;DHT22;34452;50.796;4.994;2022-11-14T15:43:56;7.50;99.90
48666;DHT22;34452;50.796;4.994;2022-11-14T15:48:59;7.50;99.90
48666;DHT22;34452;50.796;4.994;2022-11-14T15:51:49;7.50;99.90
48666;DHT22;34452;50.796;4.994;2022-11-14T15:54:32;7.60;99.90
48666;DHT22;34452;50.796;4.994;2022-11-14T15:57:11;7.60;99.90
48666;DHT22;34452;50.796;4.994;2022-11-14T15:59:37;7.60;99.90
48666;DHT22;34452;50.796;4.994;2022-11-14T16:02:22;7.60;99.90
48666;DHT22;34452;50.796;4.994;2022-11-14T16:04:52;7.60;99.90
48666;DHT22;34452;50.796;4.994;2022-11-14T16:07:19;7.60;99.90
48666;DHT22;34452;50.796;4.994;2022-11-14T16:09:44;7.60;99.90
48666;DHT22;34452;50.796;4.994;2022-11-14T16:12:10;7.60;99.90
48666;DHT22;34452;50.796;4.994;2022-11-14T16:14:36;7.60;99.90
48666;DHT22;34452;50.796;4.994;2022-11-14T16:17:02;7.50;99.90
48666;DHT22;34452;50.796;4.994;2022-11-14T16:19:28;7.50;99.90
48666;DHT22;34452;50.796;4.994;2022-11-14T16:21:57;7.50;99.90
48666;DHT22;34452;50.796;4.994;2022-11-14T16:24:27;7.60;99.90
48666;DHT22;34452;50.796;4.994;2022-11-14T16:26:53;7.60;99.90
48666;DHT22;34452;50.796;4.994;2022-11-14T16:29:19;7.50;99.90
48666;DHT22;34452;50.796;4.994;2022-11-14T16:31:45;7.50;99.90
48666;DHT22;34452;50.796;4.994;2022-11-14T16:34:18;7.50;99.90
48666;DHT22;34452;50.796;4.994;2022-11-14T16:36:44;7.50;99.90
48666;DHT22;34452;50.796;4.994;2022-11-14T16:39:10;7.50;99.90
48666;DHT22;34452;50.796;4.994;2022-11-14T16:41:38;7.60;99.90
48666;DHT22;34452;50.796;4.994;2022-11-14T16:44:04;7.60;99.90
48666;DHT22;34452;50.796;4.994;2022-11-14T16:46:30;7.50;99.90
48666;DHT22;34452;50.796;4.994;2022-11-14T16:48:55;7.50;99.90
48666;DHT22;34452;50.796;4.994;2022-11-14T16:51:21;7.50;99.90
48666;DHT22;34452;50.796;4.994;2022-11-14T16:53:47;7.50;99.90
48666;DHT22;34452;50.796;4.994;2022-11-14T16:56:12;7.40;99.90
48666;DHT22;34452;50.796;4.994;2022-11-14T16:58:39;7.40;99.90
48666;DHT22;34452;50.796;4.994;2022-11-14T17:01:06;7.40;99.90
48666;DHT22;34452;50.796;4.994;2022-11-14T17:03:33;7.40;99.90
48666;DHT22;34452;50.796;4.994;2022-11-14T17:05:58;7.40;99.90
48666;DHT22;34452;50.796;4.994;2022-11-14T17:08:24;7.40;99.90
48666;DHT22;34452;50.796;4.994;2022-11-14T17:10:50;7.30;99.90
48666;DHT22;34452;50.796;4.994;2022-11-14T17:13:16;7.40;99.90
48666;DHT22;34452;50.796;4.994;2022-11-14T17:15:42;7.40;99.90
48666;DHT22;34452;50.796;4.994;2022-11-14T17:18:08;7.50;99.90
48666;DHT22;34452;50.796;4.994;2022-11-14T17:20:36;7.40;99.90
48666;DHT22;34452;50.796;4.994;2022-11-14T17:23:02;7.40;99.90
48666;DHT22;34452;50.796;4.994;2022-11-14T17:25:29;7.40;99.90
48666;DHT22;34452;50.796;4.994;2022-11-14T17:27:55;7.40;99.90
48666;DHT22;34452;50.796;4.994;2022-11-14T17:30:21;7.40;99.90
48666;DHT22;34452;50.796;4.994;2022-11-14T17:32:46;7.40;99.90
48666;DHT22;34452;50.796;4.994;2022-11-14T17:35:12;7.40;99.90
48666;DHT22;34452;50.796;4.994;2022-11-14T17:37:38;7.40;99.90
48666;DHT22;34452;50.796;4.994;2022-11-14T17:40:04;7.30;99.90
48666;DHT22;34452;50.796;4.994;2022-11-14T17:42:30;7.40;99.90
48666;DHT22;34452;50.796;4.994;2022-11-14T17:44:56;7.40;99.90
48666;DHT22;34452;50.796;4.994;2022-11-14T17:47:25;7.40;99.90
48666;DHT22;34452;50.796;4.994;2022-11-14T17:49:51;7.40;99.90
48666;DHT22;34452;50.796;4.994;2022-11-14T17:52:17;7.40;99.90
48666;DHT22;34452;50.796;4.994;2022-11-14T17:54:42;7.30;99.90
48666;DHT22;34452;50.796;4.994;2022-11-14T17:57:08;7.30;99.90
48666;DHT22;34452;50.796;4.994;2022-11-14T17:59:34;7.20;99.90
48666;DHT22;34452;50.796;4.994;2022-11-14T18:02:00;7.20;99.90
48666;DHT22;34452;50.796;4.994;2022-11-14T18:04:27;7.20;99.90